Time;durP1;ratioP1;P1;durP2;ratioP2;P2;SDS_P1;SDS_P2;PMS_P1;PMS_P2;Temp;Humidity;BMP_temperature;BMP_pressure;BME280_temperature;BME280_humidity;BME280_pressure;Samples;Min_cycle;Max_cycle;Signal;HPM_P1;HPM_P2
2023/11/15 00:00:06;;;;;;;1.67;1.10;;;8.00;99.90;;;;;;5066887;28;20449;-59
2023/11/15 00:02:35;;;;;;;1.83;1.20;;;8.00;99.90;;;;;;5065370;28;20473;-59
2023/11/15 00:05:02;;;;;;;6.50;1.07;;;8.00;99.90;;;;;;5058860;28;20461;-60
2023/11/15 00:07:29;;;;;;;1.90;1.17;;;8.00;99.90;;;;;;5065343;28;20453;-59
2023/11/15 00:09:54;;;;;;;2.33;1.13;;;8.00;99.90;;;;;;5058926;28;21146;-60
2023/11/15 00:12:20;;;;;;;7.33;1.23;;;8.00;99.90;;;;;;5068447;28;20411;-59
2023/11/15 00:14:46;;;;;;;2.30;1.17;;;8.00;99.90;;;;;;5064896;28;20187;-60
2023/11/15 00:17:12;;;;;;;2.50;1.10;;;7.90;99.90;;;;;;5066454;28;20233;-59
2023/11/15 00:19:37;;;;;;;11.50;1.40;;;7.90;99.90;;;;;;5064064;28;20177;-59
2023/11/15 00:22:04;;;;;;;1.17;1.07;;;7.90;99.90;;;;;;5066865;28;20189;-59
2023/11/15 00:24:30;;;;;;;3.20;1.33;;;7.90;99.90;;;;;;5060139;28;20284;-60
2023/11/15 00:26:57;;;;;;;4.83;1.10;;;7.90;99.90;;;;;;5065264;28;20517;-60
2023/11/15 00:29:23;;;;;;;3.43;1.10;;;7.90;99.90;;;;;;5067443;28;20391;-59
2023/11/15 00:31:49;;;;;;;1.20;0.93;;;7.90;99.90;;;;;;5067040;28;20488;-58
2023/11/15 00:34:15;;;;;;;1.73;1.00;;;7.90;99.90;;;;;;5064236;28;20559;-60
2023/11/15 00:36:45;;;;;;;3.80;1.20;;;7.90;99.90;;;;;;5064019;28;20205;-60
2023/11/15 00:39:11;;;;;;;2.80;1.20;;;7.90;99.90;;;;;;5059558;28;20421;-59
2023/11/15 00:41:37;;;;;;;3.37;1.00;;;7.90;99.90;;;;;;5059119;28;21065;-60
2023/11/15 00:44:06;;;;;;;2.87;1.10;;;8.00;99.90;;;;;;5061363;28;20453;-59
2023/11/15 00:46:33;;;;;;;1.13;1.07;;;8.00;99.90;;;;;;5060469;28;21018;-60
2023/11/15 00:48:58;;;;;;;1.00;0.90;;;8.00;99.90;;;;;;5064450;28;20416;-60
2023/11/15 00:51:24;;;;;;;1.47;1.10;;;7.90;99.90;;;;;;5062488;28;20404;-59
2023/11/15 00:53:50;;;;;;;1.60;1.00;;;7.90;99.90;;;;;;5065574;28;20524;-60
2023/11/15 00:56:15;;;;;;;3.80;1.10;;;7.90;99.90;;;;;;5067930;28;20740;-59
2023/11/15 00:58:41;;;;;;;2.20;1.10;;;7.80;99.90;;;;;;5065373;28;20170;-60
2023/11/15 01:01:10;;;;;;;4.73;1.50;;;7.80;99.90;;;;;;5061857;28;20281;-60
2023/11/15 01:03:45;;;;;;;1.60;1.10;;;7.80;99.90;;;;;;5066040;28;20706;-59
2023/11/15 01:06:11;;;;;;;4.03;1.10;;;7.80;99.90;;;;;;5066780;28;20781;-59
2023/11/15 01:08:37;;;;;;;2.10;1.10;;;7.70;99.90;;;;;;5061795;28;20448;-59
2023/11/15 01:11:05;;;;;;;1.63;1.40;;;7.70;99.90;;;;;;5056850;28;20844;-60
2023/11/15 01:13:32;;;;;;;6.10;1.30;;;7.70;99.90;;;;;;5060753;28;20466;-59
2023/11/15 01:15:58;;;;;;;1.53;1.03;;;7.70;99.90;;;;;;5063573;28;20452;-59
2023/11/15 01:18:24;;;;;;;1.97;1.00;;;7.70;99.90;;;;;;5064743;28;20825;-60
2023/11/15 01:20:51;;;;;;;1.97;0.93;;;7.80;99.90;;;;;;5057256;28;20486;-60
2023/11/15 01:23:17;;;;;;;2.40;1.00;;;7.80;99.90;;;;;;5064485;28;20659;-59
2023/11/15 01:25:43;;;;;;;1.10;1.00;;;7.80;99.90;;;;;;5063486;28;20465;-61
2023/11/15 01:28:08;;;;;;;4.30;1.20;;;7.90;99.90;;;;;;5064920;28;20439;-59
2023/11/15 01:30:34;;;;;;;2.70;1.00;;;7.90;99.90;;;;;;5065147;28;20178;-60
2023/11/15 01:32:59;;;;;;;1.50;1.00;;;8.00;99.90;;;;;;5061702;28;20645;-59
2023/11/15 01:35:26;;;;;;;4.60;1.10;;;8.00;99.90;;;;;;5063969;28;20213;-59
2023/11/15 01:37:52;;;;;;;2.77;1.00;;;8.00;99.90;;;;;;5066596;28;20602;-60
2023/11/15 01:40:20;;;;;;;2.77;1.00;;;8.00;99.90;;;;;;5063973;28;20527;-59
2023/11/15 01:42:47;;;;;;;2.80;1.00;;;8.00;99.90;;;;;;5064940;28;22048;-59
2023/11/15 01:45:13;;;;;;;1.27;0.90;;;8.00;99.90;;;;;;5057923;28;20471;-59
2023/11/15 01:47:40;;;;;;;1.13;1.00;;;8.00;99.90;;;;;;5062327;28;20523;-59
2023/11/15 01:50:10;;;;;;;1.13;1.03;;;8.00;99.90;;;;;;5061141;28;20417;-60
2023/11/15 01:52:37;;;;;;;1.93;1.00;;;8.00;99.90;;;;;;5057426;28;20416;-59
2023/11/15 01:55:06;;;;;;;1.13;1.00;;;8.00;99.90;;;;;;5066808;28;20420;-59
2023/11/15 01:57:32;;;;;;;4.30;1.10;;;8.00;99.90;;;;;;5066195;28;20452;-60
2023/11/15 01:59:59;;;;;;;1.90;0.90;;;7.90;99.90;;;;;;5063009;28;20797;-60
2023/11/15 02:02:25;;;;;;;2.30;1.00;;;7.90;99.90;;;;;;5069442;28;20773;-60
2023/11/15 02:04:51;;;;;;;1.60;0.93;;;7.90;99.90;;;;;;5067768;28;20990;-59
2023/11/15 02:07:18;;;;;;;1.40;1.00;;;7.90;99.90;;;;;;5068861;28;20433;-59
2023/11/15 02:09:44;;;;;;;1.10;1.00;;;7.90;99.90;;;;;;5065361;28;20179;-59
2023/11/15 02:12:09;;;;;;;2.73;1.07;;;7.90;99.90;;;;;;5065145;28;20421;-59
2023/11/15 02:14:35;;;;;;;1.80;0.97;;;7.90;99.90;;;;;;5062509;28;20426;-59
2023/11/15 02:17:01;;;;;;;1.17;0.80;;;7.80;99.90;;;;;;5063403;28;20210;-59
2023/11/15 02:19:29;;;;;;;1.90;0.90;;;7.80;99.90;;;;;;5069172;28;20186;-60
2023/11/15 02:21:54;;;;;;;2.10;0.90;;;7.80;99.90;;;;;;5067891;28;20178;-59
2023/11/15 02:24:20;;;;;;;0.90;0.80;;;7.80;99.90;;;;;;5065949;28;20452;-59
2023/11/15 02:26:46;;;;;;;1.00;0.90;;;7.80;99.90;;;;;;5065688;28;20202;-60
2023/11/15 02:29:12;;;;;;;2.50;0.80;;;7.80;99.90;;;;;;5067265;28;20263;-59
2023/11/15 02:31:38;;;;;;;1.83;1.20;;;7.70;99.90;;;;;;5065067;28;20543;-59
2023/11/15 02:34:04;;;;;;;1.60;1.50;;;7.70;99.90;;;;;;5066418;28;20413;-60
2023/11/15 02:36:29;;;;;;;2.37;1.00;;;7.70;99.90;;;;;;5063456;28;20451;-59
2023/11/15 02:38:55;;;;;;;0.87;0.87;;;7.70;99.90;;;;;;5062301;28;20175;-60
2023/11/15 02:41:21;;;;;;;2.47;1.00;;;7.70;99.90;;;;;;5059696;28;20641;-59
2023/11/15 02:43:47;;;;;;;1.73;1.00;;;7.70;99.90;;;;;;5062269;28;20171;-59
2023/11/15 02:46:23;;;;;;;2.33;1.10;;;7.60;99.90;;;;;;5061310;28;20831;-60
2023/11/15 02:48:52;;;;;;;0.93;0.90;;;7.60;99.90;;;;;;5066058;28;20170;-59
2023/11/15 02:51:18;;;;;;;2.90;1.10;;;7.60;99.90;;;;;;5064409;28;21271;-60
2023/11/15 02:53:43;;;;;;;1.47;1.10;;;7.60;99.90;;;;;;5068875;28;20507;-59
2023/11/15 02:56:09;;;;;;;3.00;1.07;;;7.60;99.90;;;;;;5069161;28;20526;-61
2023/11/15 02:58:35;;;;;;;1.57;1.03;;;7.60;99.90;;;;;;5060355;28;20548;-61
2023/11/15 03:01:06;;;;;;;2.17;0.90;;;7.60;99.90;;;;;;5065122;28;20533;-60
2023/11/15 03:03:35;;;;;;;1.23;1.07;;;7.60;99.90;;;;;;5068444;28;20878;-59
2023/11/15 03:06:02;;;;;;;1.27;1.03;;;7.60;99.90;;;;;;5063997;28;20460;-59
2023/11/15 03:08:27;;;;;;;1.70;0.90;;;7.60;99.90;;;;;;5066577;28;20954;-59
2023/11/15 03:10:53;;;;;;;2.80;1.20;;;7.60;99.90;;;;;;5062252;28;20529;-61
2023/11/15 03:13:18;;;;;;;1.03;0.90;;;7.60;99.90;;;;;;5069252;28;20225;-59
2023/11/15 03:15:45;;;;;;;2.23;1.10;;;7.70;99.90;;;;;;5066046;28;20252;-60
2023/11/15 03:18:11;;;;;;;1.20;1.00;;;7.70;99.90;;;;;;5065104;28;20587;-60
2023/11/15 03:20:37;;;;;;;2.10;1.13;;;7.70;99.90;;;;;;5061236;28;20447;-59
2023/11/15 03:23:02;;;;;;;1.07;0.97;;;7.70;99.90;;;;;;5061448;28;20437;-59
2023/11/15 03:25:29;;;;;;;2.60;0.80;;;7.70;99.90;;;;;;5065707;28;20781;-58
2023/11/15 03:27:54;;;;;;;1.33;0.90;;;7.70;99.90;;;;;;5068674;28;20239;-60
2023/11/15 03:30:20;;;;;;;2.80;0.90;;;7.70;99.90;;;;;;5062294;28;20438;-58
2023/11/15 03:32:45;;;;;;;1.43;0.97;;;7.70;99.90;;;;;;5067916;28;20209;-60
2023/11/15 03:35:11;;;;;;;1.10;0.90;;;7.70;99.90;;;;;;5062318;28;21244;-59
2023/11/15 03:37:37;;;;;;;1.00;1.00;;;7.70;99.90;;;;;;5068503;28;20195;-59
2023/11/15 03:40:04;;;;;;;3.80;1.10;;;7.80;99.90;;;;;;5063821;28;20425;-59
2023/11/15 03:42:30;;;;;;;0.80;0.80;;;7.80;99.90;;;;;;5061255;28;20179;-59
2023/11/15 03:44:58;;;;;;;1.00;0.90;;;7.70;99.90;;;;;;5062778;28;20568;-60
2023/11/15 03:47:23;;;;;;;2.40;1.00;;;7.80;99.90;;;;;;5067446;28;20436;-60
2023/11/15 03:49:49;;;;;;;2.20;0.90;;;7.80;99.90;;;;;;5063435;28;20487;-59
2023/11/15 03:52:14;;;;;;;1.33;0.90;;;7.80;99.90;;;;;;5064099;28;20269;-59
2023/11/15 03:54:40;;;;;;;2.00;1.00;;;7.70;99.90;;;;;;5064519;28;20179;-60
2023/11/15 03:57:07;;;;;;;5.30;1.20;;;7.70;99.90;;;;;;5062658;28;20286;-60
2023/11/15 03:59:33;;;;;;;1.20;1.10;;;7.70;99.90;;;;;;5066938;28;20174;-60
2023/11/15 04:01:59;;;;;;;1.27;1.00;;;7.70;99.90;;;;;;5058886;28;20478;-59
2023/11/15 04:04:24;;;;;;;3.70;1.03;;;7.70;99.90;;;;;;5066492;28;20216;-60
2023/11/15 04:06:50;;;;;;;6.10;1.10;;;7.70;99.90;;;;;;5065904;28;20208;-59
2023/11/15 04:09:16;;;;;;;1.37;1.20;;;7.70;99.90;;;;;;5069399;28;20181;-59
2023/11/15 04:11:42;;;;;;;3.03;1.20;;;7.70;99.90;;;;;;5062643;28;20691;-60
2023/11/15 04:14:07;;;;;;;3.50;1.00;;;7.60;99.90;;;;;;5064571;28;20429;-59
2023/11/15 04:16:33;;;;;;;4.60;1.67;;;7.60;99.90;;;;;;5064651;28;20194;-59
2023/11/15 04:19:00;;;;;;;1.67;1.13;;;7.60;99.90;;;;;;5067885;28;20190;-60
2023/11/15 04:21:26;;;;;;;1.77;0.87;;;7.60;99.90;;;;;;5062629;28;20440;-59
2023/11/15 04:23:53;;;;;;;2.10;1.17;;;7.50;99.90;;;;;;5064448;28;20246;-59
2023/11/15 04:26:22;;;;;;;3.93;1.10;;;7.50;99.90;;;;;;5061117;28;20431;-59
2023/11/15 04:28:48;;;;;;;3.43;1.20;;;7.50;99.90;;;;;;5067709;28;20425;-59
2023/11/15 04:31:14;;;;;;;2.97;1.17;;;7.50;99.90;;;;;;5065363;28;20459;-59
2023/11/15 04:33:40;;;;;;;7.43;1.40;;;7.50;99.90;;;;;;5062650;28;20464;-60
2023/11/15 04:36:07;;;;;;;2.97;1.70;;;7.50;99.90;;;;;;5062827;28;20175;-60
2023/11/15 04:38:33;;;;;;;3.17;1.33;;;7.40;99.90;;;;;;5062564;28;20198;-59
2023/11/15 04:40:59;;;;;;;2.17;1.30;;;7.40;99.90;;;;;;5063853;28;20437;-60
2023/11/15 04:43:25;;;;;;;3.43;1.47;;;7.40;99.90;;;;;;5061883;28;20175;-60
2023/11/15 04:45:52;;;;;;;2.17;1.30;;;7.40;99.90;;;;;;5063595;28;20475;-59
2023/11/15 04:48:18;;;;;;;3.10;1.57;;;7.30;99.90;;;;;;5057068;28;20465;-60
2023/11/15 04:50:43;;;;;;;1.70;1.10;;;7.30;99.90;;;;;;5061936;28;20405;-59
2023/11/15 04:53:09;;;;;;;3.70;1.60;;;7.30;99.90;;;;;;5059763;28;20283;-60
2023/11/15 04:55:35;;;;;;;4.50;1.40;;;7.30;99.90;;;;;;5065138;28;20224;-59
2023/11/15 04:58:01;;;;;;;2.47;1.70;;;7.30;99.90;;;;;;5060520;28;20562;-54
2023/11/15 05:00:26;;;;;;;5.10;1.40;;;7.30;99.90;;;;;;5058602;28;20458;-54
2023/11/15 05:02:52;;;;;;;3.53;1.37;;;7.30;99.90;;;;;;5048945;28;20183;-59
2023/11/15 05:05:18;;;;;;;2.60;1.30;;;7.30;99.90;;;;;;5059716;28;20205;-59
2023/11/15 05:07:45;;;;;;;1.43;1.30;;;7.30;99.90;;;;;;5061189;28;20455;-60
2023/11/15 05:10:11;;;;;;;6.20;2.33;;;7.30;99.90;;;;;;5058378;28;20799;-62
2023/11/15 05:12:37;;;;;;;6.73;2.00;;;7.30;99.90;;;;;;5060991;28;20425;-60
2023/11/15 05:15:04;;;;;;;4.10;1.90;;;7.30;99.90;;;;;;5062777;28;20430;-60
2023/11/15 05:17:30;;;;;;;4.37;2.10;;;7.30;99.90;;;;;;5059231;28;20464;-61
2023/11/15 05:19:56;;;;;;;3.53;1.80;;;7.20;99.90;;;;;;5060668;28;20433;-60
2023/11/15 05:22:21;;;;;;;3.70;1.47;;;7.20;99.90;;;;;;5058817;28;20615;-60
2023/11/15 05:24:47;;;;;;;1.60;1.50;;;7.20;99.90;;;;;;5060128;28;20217;-59
2023/11/15 05:27:13;;;;;;;3.23;1.50;;;7.20;99.90;;;;;;5057082;28;20248;-60
2023/11/15 05:29:39;;;;;;;1.30;1.20;;;7.20;99.90;;;;;;5062449;28;20653;-60
2023/11/15 05:32:04;;;;;;;5.83;1.50;;;7.20;99.90;;;;;;5059035;28;20170;-60
2023/11/15 05:34:30;;;;;;;5.50;1.60;;;7.20;99.90;;;;;;5056567;28;20269;-59
2023/11/15 05:36:56;;;;;;;3.17;1.40;;;7.20;99.90;;;;;;5066550;28;21182;-60
2023/11/15 05:39:22;;;;;;;3.73;2.03;;;7.20;99.90;;;;;;5047501;28;20212;-60
2023/11/15 05:41:48;;;;;;;4.37;1.53;;;7.20;99.90;;;;;;5051583;28;20174;-60
2023/11/15 05:44:14;;;;;;;3.10;1.53;;;7.10;99.90;;;;;;5060502;28;20448;-60
2023/11/15 05:46:40;;;;;;;3.17;1.30;;;7.10;99.90;;;;;;5057814;28;20448;-60
2023/11/15 05:49:05;;;;;;;3.67;1.53;;;7.10;99.90;;;;;;5058394;28;20423;-60
2023/11/15 05:51:33;;;;;;;4.00;1.40;;;7.10;99.90;;;;;;5064335;28;20193;-59
2023/11/15 05:54:04;;;;;;;10.10;2.10;;;7.10;99.90;;;;;;5062066;28;20573;-60
2023/11/15 05:56:30;;;;;;;1.60;1.50;;;7.10;99.90;;;;;;5060743;28;20417;-58
2023/11/15 05:58:56;;;;;;;3.73;1.60;;;7.10;99.90;;;;;;5055832;28;20429;-60
2023/11/15 06:01:22;;;;;;;1.87;1.40;;;7.10;99.90;;;;;;5060262;28;20421;-60
2023/11/15 06:03:48;;;;;;;2.97;1.53;;;7.00;99.90;;;;;;5061033;28;20420;-61
2023/11/15 06:06:14;;;;;;;1.97;1.30;;;7.00;99.90;;;;;;5063428;28;20529;-60
2023/11/15 06:08:39;;;;;;;2.83;1.40;;;7.00;99.90;;;;;;5063815;28;20205;-60
2023/11/15 06:11:05;;;;;;;3.87;1.50;;;7.00;99.90;;;;;;5063142;28;20172;-59
2023/11/15 06:13:31;;;;;;;3.07;1.70;;;7.00;99.90;;;;;;5058297;28;20193;-60
2023/11/15 06:15:56;;;;;;;4.90;2.37;;;7.00;99.90;;;;;;5064456;28;20179;-60
2023/11/15 06:18:22;;;;;;;13.27;3.90;;;7.00;99.90;;;;;;5060375;28;20206;-60
2023/11/15 06:20:49;;;;;;;6.30;3.80;;;7.00;99.90;;;;;;5066492;28;20179;-61
2023/11/15 06:23:15;;;;;;;6.57;3.47;;;7.00;99.90;;;;;;5062226;28;20264;-59
2023/11/15 06:25:41;;;;;;;2.33;2.00;;;7.00;99.90;;;;;;5062627;28;20602;-60
2023/11/15 06:28:06;;;;;;;3.30;2.30;;;7.00;99.90;;;;;;5058916;28;20281;-60
2023/11/15 06:30:32;;;;;;;3.00;1.97;;;7.00;99.90;;;;;;5059337;28;20170;-60
2023/11/15 06:32:58;;;;;;;4.40;2.30;;;7.00;99.90;;;;;;5061276;28;20352;-60
2023/11/15 06:35:23;;;;;;;9.50;2.30;;;7.00;99.90;;;;;;5057685;28;20194;-60
2023/11/15 06:37:49;;;;;;;9.63;2.33;;;7.00;99.90;;;;;;5061877;28;20286;-60
2023/11/15 06:40:15;;;;;;;6.20;2.17;;;7.00;99.90;;;;;;5064935;28;20178;-60
2023/11/15 06:42:42;;;;;;;8.50;2.80;;;7.00;99.90;;;;;;5065851;28;20186;-60
2023/11/15 06:45:09;;;;;;;6.50;2.30;;;7.00;99.90;;;;;;5065580;28;20456;-60
2023/11/15 06:47:35;;;;;;;5.30;2.47;;;7.10;99.90;;;;;;5063222;28;20452;-59
2023/11/15 06:50:04;;;;;;;8.93;2.60;;;7.10;99.90;;;;;;5069756;28;20427;-60
2023/11/15 06:52:31;;;;;;;4.10;1.73;;;7.10;99.90;;;;;;5066129;28;20430;-59
2023/11/15 06:54:57;;;;;;;2.47;1.67;;;7.10;99.90;;;;;;5063202;28;20496;-60
2023/11/15 06:57:23;;;;;;;7.73;1.80;;;7.10;99.90;;;;;;5065364;28;20551;-60
2023/11/15 06:59:48;;;;;;;5.17;1.60;;;7.20;99.90;;;;;;5067461;28;20197;-60
2023/11/15 07:02:15;;;;;;;4.60;2.97;;;7.20;99.90;;;;;;5064482;28;20193;-61
2023/11/15 07:04:41;;;;;;;3.57;2.23;;;7.20;99.90;;;;;;5062662;28;20535;-60
2023/11/15 07:07:06;;;;;;;3.10;2.23;;;7.20;99.90;;;;;;5067142;28;20449;-60
2023/11/15 07:09:33;;;;;;;5.87;1.93;;;7.20;99.90;;;;;;5068415;28;20954;-59
2023/11/15 07:11:59;;;;;;;7.13;2.63;;;7.30;99.90;;;;;;5063443;28;20162;-60
2023/11/15 07:14:26;;;;;;;5.60;1.90;;;7.30;99.90;;;;;;5066939;28;20421;-61
2023/11/15 07:16:58;;;;;;;4.63;2.20;;;7.30;99.90;;;;;;5066388;28;20607;-59
2023/11/15 07:19:24;;;;;;;4.40;2.00;;;7.30;99.90;;;;;;5065155;28;20460;-59
2023/11/15 07:21:52;;;;;;;4.73;1.80;;;7.30;99.90;;;;;;5069374;28;20425;-60
2023/11/15 07:24:19;;;;;;;4.40;2.13;;;7.30;99.90;;;;;;5064451;28;20519;-60
2023/11/15 07:26:45;;;;;;;8.20;1.60;;;7.30;99.90;;;;;;5062218;28;20435;-59
2023/11/15 07:29:13;;;;;;;2.60;1.50;;;7.30;99.90;;;;;;5062474;28;20433;-59
2023/11/15 07:31:42;;;;;;;2.90;1.83;;;7.30;99.90;;;;;;5064729;28;20420;-60
2023/11/15 07:34:08;;;;;;;4.33;1.70;;;7.40;99.90;;;;;;5067646;28;20476;-59
2023/11/15 07:36:34;;;;;;;5.53;1.50;;;7.40;99.90;;;;;;5059955;28;20423;-59
2023/11/15 07:39:06;;;;;;;1.83;1.30;;;7.40;99.90;;;;;;5067812;28;20471;-60
2023/11/15 07:41:35;;;;;;;3.60;1.87;;;7.40;99.90;;;;;;5063645;28;20419;-60
2023/11/15 07:44:01;;;;;;;1.43;1.30;;;7.50;99.90;;;;;;5063929;28;20432;-59
2023/11/15 07:46:30;;;;;;;2.60;1.40;;;7.40;99.90;;;;;;5068057;28;20425;-60
2023/11/15 07:48:58;;;;;;;3.00;1.90;;;7.40;99.90;;;;;;5058185;28;21034;-59
2023/11/15 07:51:23;;;;;;;3.20;2.10;;;7.40;99.90;;;;;;5066556;28;20452;-59
2023/11/15 07:53:49;;;;;;;5.20;2.23;;;7.40;99.90;;;;;;5060953;28;20456;-59
2023/11/15 07:56:18;;;;;;;3.10;1.53;;;7.40;99.90;;;;;;5063028;28;20424;-60
2023/11/15 07:58:49;;;;;;;5.70;2.13;;;7.50;99.90;;;;;;5065399;28;20220;-59
2023/11/15 08:01:15;;;;;;;21.23;2.83;;;7.50;99.90;;;;;;5063880;28;20464;-60
2023/11/15 08:03:41;;;;;;;2.97;1.77;;;7.50;99.90;;;;;;5058826;28;20480;-59
2023/11/15 08:06:10;;;;;;;4.70;1.70;;;7.60;99.90;;;;;;5054659;28;20217;-59
2023/11/15 08:08:37;;;;;;;2.73;1.57;;;7.60;99.90;;;;;;5062692;28;20452;-58
2023/11/15 08:11:03;;;;;;;2.70;1.50;;;7.70;99.90;;;;;;5060840;28;20535;-59
2023/11/15 08:13:29;;;;;;;3.00;1.70;;;7.70;99.90;;;;;;5058102;28;20424;-59
2023/11/15 08:15:56;;;;;;;2.10;1.60;;;7.70;99.90;;;;;;5060725;28;20468;-60
2023/11/15 08:18:22;;;;;;;1.90;1.37;;;7.80;99.90;;;;;;5064255;28;20850;-60
2023/11/15 08:20:48;;;;;;;4.00;1.30;;;7.80;99.90;;;;;;5058749;28;20428;-59
2023/11/15 08:23:14;;;;;;;3.80;1.63;;;7.90;99.90;;;;;;5057141;28;20973;-60
2023/11/15 08:25:47;;;;;;;1.60;1.50;;;8.00;99.90;;;;;;5061850;28;20198;-60
2023/11/15 08:28:13;;;;;;;2.80;1.30;;;8.00;99.90;;;;;;5060621;28;20202;-59
2023/11/15 08:30:39;;;;;;;3.23;1.50;;;8.10;99.90;;;;;;5060823;28;20440;-59
2023/11/15 08:33:05;;;;;;;3.37;1.30;;;8.20;99.90;;;;;;5065161;28;20253;-60
2023/11/15 08:35:31;;;;;;;4.17;1.70;;;8.20;99.90;;;;;;5052931;28;20934;-60
2023/11/15 08:37:57;;;;;;;3.00;1.03;;;8.20;99.90;;;;;;5068352;28;20442;-60
2023/11/15 08:40:24;;;;;;;2.13;1.20;;;8.30;99.90;;;;;;5063904;28;20435;-59
2023/11/15 08:42:51;;;;;;;1.50;1.10;;;8.30;99.90;;;;;;5061399;28;20175;-60
2023/11/15 08:45:18;;;;;;;1.47;1.10;;;8.40;99.90;;;;;;5059234;28;20489;-59
2023/11/15 08:47:44;;;;;;;6.40;1.40;;;8.50;99.90;;;;;;5073166;28;20441;-60
2023/11/15 08:50:09;;;;;;;2.30;1.17;;;8.50;99.90;;;;;;5065421;28;20903;-59
2023/11/15 08:52:41;;;;;;;2.10;1.13;;;8.60;99.90;;;;;;5054524;28;20595;-59
2023/11/15 08:55:11;;;;;;;8.00;1.40;;;8.70;99.90;;;;;;5064707;28;20758;-59
2023/11/15 08:57:40;;;;;;;2.30;1.13;;;8.70;99.90;;;;;;5062292;28;20898;-60
2023/11/15 09:00:15;;;;;;;1.20;1.10;;;8.80;99.90;;;;;;5063861;28;20432;-59
2023/11/15 09:02:44;;;;;;;8.60;1.10;;;8.80;99.90;;;;;;5059222;28;20432;-61
2023/11/15 09:05:11;;;;;;;1.33;1.13;;;8.80;99.90;;;;;;5059997;28;20496;-60
2023/11/15 09:07:37;;;;;;;2.33;1.47;;;8.90;99.90;;;;;;5062625;28;20471;-59
2023/11/15 09:10:04;;;;;;;6.63;1.40;;;9.10;99.90;;;;;;5065860;28;20424;-60
2023/11/15 09:12:31;;;;;;;3.07;1.30;;;9.10;99.90;;;;;;5064341;28;20235;-59
2023/11/15 09:14:58;;;;;;;1.97;1.00;;;9.30;99.90;;;;;;5064607;28;20428;-60
2023/11/15 09:17:24;;;;;;;2.37;1.20;;;9.40;99.90;;;;;;5066150;28;20985;-60
2023/11/15 09:19:56;;;;;;;3.50;1.40;;;9.50;99.90;;;;;;5061233;28;20405;-60
2023/11/15 09:22:22;;;;;;;7.03;1.60;;;9.60;99.90;;;;;;5060818;28;20443;-60
2023/11/15 09:24:51;;;;;;;1.90;1.40;;;9.50;99.90;;;;;;5059401;28;20564;-59
2023/11/15 09:27:17;;;;;;;6.40;1.60;;;9.50;99.90;;;;;;5062716;28;20198;-60
2023/11/15 09:29:43;;;;;;;5.63;1.50;;;9.40;99.90;;;;;;5065441;28;20412;-60
2023/11/15 09:32:10;;;;;;;3.40;1.70;;;9.30;99.90;;;;;;5064532;28;20174;-59
2023/11/15 09:34:38;;;;;;;5.50;1.60;;;9.20;99.90;;;;;;5065215;28;20417;-59
2023/11/15 09:37:04;;;;;;;2.50;1.57;;;9.20;99.90;;;;;;5063827;28;20456;-60
2023/11/15 09:39:30;;;;;;;2.93;1.23;;;9.10;99.90;;;;;;5062947;28;20507;-60
2023/11/15 09:41:57;;;;;;;5.00;1.30;;;9.00;99.90;;;;;;5062006;28;20210;-60
2023/11/15 09:44:24;;;;;;;5.03;1.93;;;8.90;99.90;;;;;;5060623;28;21234;-60
2023/11/15 09:46:54;;;;;;;6.60;1.47;;;8.90;99.90;;;;;;5064557;28;20460;-60
2023/11/15 09:49:22;;;;;;;7.23;1.40;;;8.90;99.90;;;;;;5059820;28;20443;-61
2023/11/15 09:51:48;;;;;;;3.60;1.30;;;9.00;99.90;;;;;;5060968;28;20420;-60
2023/11/15 09:54:15;;;;;;;1.90;1.20;;;9.00;99.90;;;;;;5064891;28;20547;-59
2023/11/15 09:56:42;;;;;;;4.40;1.37;;;9.10;99.90;;;;;;5055738;28;20437;-59
2023/11/15 09:59:08;;;;;;;6.17;1.40;;;9.10;99.90;;;;;;5059075;28;20426;-60
2023/11/15 10:01:34;;;;;;;3.60;1.40;;;9.20;99.90;;;;;;5061979;28;20950;-59
2023/11/15 10:04:02;;;;;;;4.80;2.17;;;9.20;99.90;;;;;;5058230;28;20240;-60
2023/11/15 10:06:40;;;;;;;5.07;2.50;;;9.20;99.90;;;;;;5066573;28;20443;-60
2023/11/15 10:09:06;;;;;;;4.93;2.03;;;9.20;99.90;;;;;;5063696;28;20444;-60
2023/11/15 10:11:31;;;;;;;2.90;1.47;;;9.30;99.90;;;;;;5063773;28;20792;-60
2023/11/15 10:14:15;;;;;;;1.60;1.37;;;9.30;99.90;;;;;;5062885;28;20193;-60
2023/11/15 10:16:48;;;;;;;1.47;1.20;;;9.40;99.90;;;;;;5066377;28;20216;-60
2023/11/15 10:19:26;;;;;;;1.63;1.20;;;9.40;99.90;;;;;;5071309;28;20626;-59
2023/11/15 10:22:02;;;;;;;3.07;1.00;;;9.40;99.90;;;;;;5066607;28;20436;-59
2023/11/15 10:24:29;;;;;;;1.63;1.20;;;9.40;99.90;;;;;;5068058;28;20815;-60
2023/11/15 10:26:56;;;;;;;4.20;1.30;;;9.30;99.90;;;;;;5060825;28;20453;-60
2023/11/15 10:29:22;;;;;;;2.77;1.00;;;9.20;99.90;;;;;;5068346;28;20417;-61
2023/11/15 10:31:55;;;;;;;3.30;1.30;;;9.10;99.90;;;;;;5068171;28;20443;-59
2023/11/15 10:34:27;;;;;;;2.90;1.20;;;9.00;99.90;;;;;;5067458;28;20187;-60
2023/11/15 10:37:11;;;;;;;2.07;1.20;;;8.90;99.90;;;;;;5064942;28;20915;-60
2023/11/15 10:39:43;;;;;;;1.80;1.23;;;8.80;99.90;;;;;;5063179;28;20428;-60
2023/11/15 10:42:12;;;;;;;1.53;1.20;;;8.80;99.90;;;;;;5067029;28;20424;-60
2023/11/15 10:44:39;;;;;;;3.50;1.20;;;8.80;99.90;;;;;;5070148;28;20452;-60
2023/11/15 10:47:08;;;;;;;2.80;1.27;;;8.90;99.90;;;;;;5064383;28;20531;-60
2023/11/15 10:49:44;;;;;;;3.50;1.33;;;8.90;99.90;;;;;;5067801;28;20405;-59
2023/11/15 10:52:11;;;;;;;5.20;1.30;;;9.10;99.90;;;;;;5061794;28;20439;-60
2023/11/15 10:54:38;;;;;;;3.47;1.50;;;9.40;99.90;;;;;;5065778;28;20426;-57
2023/11/15 10:57:07;;;;;;;8.07;4.07;;;9.70;99.90;;;;;;5061970;28;20440;-59
2023/11/15 10:59:41;;;;;;;3.53;2.30;;;9.80;99.90;;;;;;5039945;28;20463;-57
2023/11/15 11:02:09;;;;;;;3.73;1.80;;;9.90;99.90;;;;;;5055566;28;21081;-59
2023/11/15 11:04:38;;;;;;;2.10;1.13;;;9.90;99.90;;;;;;5059312;28;21014;-60
2023/11/15 11:07:08;;;;;;;4.53;1.40;;;9.90;99.90;;;;;;5060230;28;20461;-60
2023/11/15 11:10:09;;;;;;;3.70;1.57;;;9.90;99.90;;;;;;5061102;28;20412;-59
2023/11/15 11:12:36;;;;;;;2.97;1.50;;;10.00;99.90;;;;;;5060849;28;20415;-60
2023/11/15 11:15:18;;;;;;;3.47;1.40;;;10.10;99.90;;;;;;5064568;28;21176;-60
2023/11/15 11:17:47;;;;;;;2.87;1.17;;;10.10;99.90;;;;;;5065907;28;20467;-62
2023/11/15 11:20:27;;;;;;;3.80;1.60;;;10.30;99.90;;;;;;5064995;28;20414;-60
2023/11/15 11:23:19;;;;;;;6.93;1.60;;;10.30;99.90;;;;;;5064546;28;20436;-59
2023/11/15 11:25:47;;;;;;;13.87;8.83;;;10.10;99.90;;;;;;5061427;28;20457;-60
2023/11/15 11:28:14;;;;;;;8.63;1.90;;;10.00;99.90;;;;;;5061697;28;20452;-58
2023/11/15 11:30:43;;;;;;;5.50;2.03;;;10.00;99.90;;;;;;5061432;28;20421;-59
2023/11/15 11:33:15;;;;;;;6.20;2.87;;;9.90;99.90;;;;;;5065302;28;20456;-60
2023/11/15 11:35:42;;;;;;;8.43;5.80;;;9.90;99.90;;;;;;5060662;28;20429;-60
2023/11/15 11:38:12;;;;;;;4.30;1.63;;;9.80;99.90;;;;;;5063171;28;21049;-60
2023/11/15 11:40:42;;;;;;;2.30;1.50;;;9.80;99.90;;;;;;5064836;28;20974;-59
2023/11/15 11:43:15;;;;;;;3.67;1.73;;;9.80;99.90;;;;;;5061165;28;20805;-60
2023/11/15 11:45:42;;;;;;;5.33;2.53;;;9.80;99.90;;;;;;5074554;28;20480;-61
2023/11/15 11:48:24;;;;;;;8.30;2.60;;;9.80;99.90;;;;;;5063611;28;20491;-60
2023/11/15 11:50:59;;;;;;;1.30;1.20;;;9.80;99.90;;;;;;5061007;28;20428;-60
2023/11/15 11:53:26;;;;;;;4.73;1.27;;;9.80;99.90;;;;;;5063341;28;20463;-60
2023/11/15 11:55:54;;;;;;;2.70;1.20;;;10.00;99.90;;;;;;5063448;28;20969;-60
2023/11/15 11:58:22;;;;;;;3.43;1.23;;;10.20;99.40;;;;;;5060356;28;20589;-58
2023/11/15 12:00:48;;;;;;;4.97;1.60;;;10.40;98.00;;;;;;5064894;28;20427;-60
2023/11/15 12:03:15;;;;;;;2.43;1.30;;;10.60;99.90;;;;;;5063240;28;20527;-60
2023/11/15 12:05:41;;;;;;;4.60;1.53;;;10.70;98.90;;;;;;5064402;28;20479;-60
2023/11/15 12:08:07;;;;;;;3.83;1.60;;;10.70;94.40;;;;;;5062063;28;20455;-60
2023/11/15 12:10:34;;;;;;;9.43;1.50;;;10.70;94.60;;;;;;5064743;28;20206;-60
2023/11/15 12:13:05;;;;;;;2.10;1.10;;;10.60;94.20;;;;;;5065301;28;20429;-61
2023/11/15 12:15:35;;;;;;;2.73;1.00;;;10.50;95.10;;;;;;5063823;28;20431;-60
2023/11/15 12:18:02;;;;;;;1.30;1.10;;;10.50;95.50;;;;;;5064041;28;20449;-60
2023/11/15 12:20:30;;;;;;;2.47;1.10;;;10.40;94.60;;;;;;5066669;28;20864;-61
2023/11/15 12:23:08;;;;;;;3.53;1.20;;;10.30;95.00;;;;;;5065078;28;20494;-60
2023/11/15 12:25:52;;;;;;;2.97;1.20;;;10.30;95.30;;;;;;5062422;28;20462;-59
2023/11/15 12:28:25;;;;;;;3.03;1.10;;;10.40;96.50;;;;;;5063182;28;20449;-60
2023/11/15 12:30:53;;;;;;;5.90;1.07;;;10.50;96.90;;;;;;5059675;28;20425;-60
2023/11/15 12:33:19;;;;;;;3.47;1.13;;;10.50;98.10;;;;;;5057863;28;20491;-60
2023/11/15 12:35:45;;;;;;;3.57;1.20;;;10.50;98.70;;;;;;5064071;28;20511;-60
2023/11/15 12:38:13;;;;;;;3.03;1.00;;;10.50;96.40;;;;;;5063555;28;20537;-60
2023/11/15 12:40:42;;;;;;;1.80;1.10;;;10.40;98.20;;;;;;5057647;28;20440;-60
2023/11/15 12:43:25;;;;;;;1.67;1.03;;;10.40;97.40;;;;;;5062227;28;20419;-60
2023/11/15 12:45:54;;;;;;;5.80;1.33;;;10.40;98.60;;;;;;5062188;28;20834;-60
2023/11/15 12:48:20;;;;;;;3.83;1.00;;;10.50;97.90;;;;;;5064436;28;20456;-60
2023/11/15 12:50:50;;;;;;;2.00;1.13;;;10.50;96.70;;;;;;5061646;28;20904;-60
2023/11/15 12:53:17;;;;;;;5.57;2.10;;;10.40;97.00;;;;;;5056470;28;20899;-60
2023/11/15 12:55:45;;;;;;;5.80;1.03;;;10.40;98.60;;;;;;5064743;28;20456;-60